2016 Wurst Tri Ever Results

[ Triathlon | Swim Bike | Swim Run | Bike Run ]

[ Results in Excel Format ]

2016 Wurst Tri Ever
Triathlon Results
Overall Swim
--300m--
T1 Bike
--12.6 Miles--
T2 Run
--2.7 Miles--
AG
Pos
Gender
Pos
Overall
Pos
Name Race No Finish
Time
Swim
Split
T1 Bike
Split
Pace T2 Run
Split
Pace
Overall
Female
1 1 5 Emily AMENT-URDANETA 11 01:08:07 00:07:40 00:00:46 00:41:01 18.4 m/hr 00:00:36 00:18:01 6:40 min/m
Male
1 1 1 Eloy GONZALEZ 29 01:01:37 00:08:24 00:00:50 00:36:05 20.9 m/hr 00:00:39 00:15:37 5:47 min/m
Masters
Female
1 2 6 Sharon SANDER 10 01:09:17 00:07:34 00:01:11 00:40:07 18.8 m/hr 00:00:54 00:19:29 7:13 min/m
Male
1 4 4 John SMITH 36 01:04:37 00:07:56 00:01:05 00:37:42 20.0 m/hr 00:00:36 00:17:16 6:24 min/m
Ages 19 and Under
Female
1 57 169 Katie OMEIS 336 01:41:34 00:12:30 00:02:10 00:59:37 12.7 m/hr 00:01:11 00:26:04 9:39 min/m
2 101 245 Mariah BANNON 81 01:58:54 00:13:06 00:02:30 01:06:22 11.4 m/hr 00:01:01 00:35:53 13:17 min/m
Male
1 6 8 Maxwell JARVIE 2 01:09:35 00:07:07 00:01:04 00:42:41 17.7 m/hr 00:01:03 00:17:39 6:32 min/m
2 45 56 Rex ASHLEY 31 01:24:02 00:08:44 00:02:32 00:46:01 16.4 m/hr 00:01:14 00:25:29 9:26 min/m
3 72 104 Rob MCKENNA 876 01:31:03 00:11:06 00:04:20 00:52:16 14.5 m/hr 00:01:51 00:21:28 7:57 min/m
4 83 119 Wiley FLORES 880 01:32:21 00:10:48 00:01:37 00:52:25 14.4 m/hr 00:01:33 00:25:56 9:36 min/m
5 85 124 Caleb CLAYTON 212 01:32:45 00:11:00 00:03:37 00:57:04 13.2 m/hr 00:00:51 00:20:11 7:28 min/m
6 100 148 Patrick VELENTZAS 292 01:36:45 00:11:39 00:03:02 00:56:39 13.3 m/hr 00:01:05 00:24:17 8:59 min/m
7 116 175 Joshua CLAYTON 258 01:42:48 00:11:10 00:05:01 01:03:52 11.8 m/hr 00:01:04 00:21:41 8:01 min/m
8 122 187 Clayton STROUT 291 01:45:06 00:12:15 00:02:48 01:06:05 11.4 m/hr 00:02:05 00:21:50 8:05 min/m
Ages 20 - 24
Female
1 52 158 Tammy DEFINA 233 01:38:44 00:10:40 00:03:53 01:00:13 12.6 m/hr 00:00:43 00:23:13 8:36 min/m
2 61 178 Maria SHORT 254 01:43:30 00:11:02 00:01:27 01:00:26 12.5 m/hr 00:00:50 00:29:43 11:00 min/m
3 93 231 Lauren HUNTER 838 01:53:59 00:15:09 00:04:47 01:01:07 12.4 m/hr 00:01:16 00:31:37 11:42 min/m
4 94 232 Emily SAVITT 59 01:54:08 00:15:22 00:04:45 01:00:57 12.4 m/hr 00:01:34 00:31:29 11:39 min/m
5 118 270 Calli TOUSSAINT 326 02:16:30 00:13:31 00:04:20 01:19:47 9.5 m/hr 00:01:26 00:37:24 13:51 min/m
Male
1 2 2 Nick MERIWETHER 34 01:01:53 00:08:06 00:00:33 00:36:15 20.8 m/hr 00:00:35 00:16:22 6:03 min/m
2 77 110 Evan ALFARO 874 01:31:28 00:09:24 00:02:09 00:56:16 13.4 m/hr 00:01:01 00:22:35 8:22 min/m
3 81 116 Kevin DEFINA 234 01:32:11 00:09:38 00:03:21 00:51:07 14.8 m/hr 00:01:06 00:26:57 9:59 min/m
Ages 25 - 29
Female
1 5 37 Pavluk CJ 238 01:20:38 00:09:40 00:02:42 00:47:29 15.9 m/hr 00:01:04 00:19:41 7:17 min/m
2 9 48 Jenny PAUL 853 01:22:42 00:08:46 00:01:05 00:47:12 16.0 m/hr 00:00:54 00:24:43 9:09 min/m
3 29 92 Christina RAGGIO 58 01:29:29 00:11:00 00:02:30 00:48:01 15.7 m/hr 00:01:34 00:26:22 9:46 min/m
4 51 154 Christiane RIVERA 87 01:37:57 00:13:44 00:03:06 00:53:43 14.1 m/hr 00:02:30 00:24:52 9:12 min/m
5 71 196 Sarah TUCKER 244 01:46:55 00:11:27 00:02:56 01:03:37 11.9 m/hr 00:01:09 00:27:44 10:16 min/m
6 73 199 Jaclyn FREEMAN 316 01:47:07 00:10:39 00:02:41 01:02:17 12.1 m/hr 00:00:47 00:30:40 11:21 min/m
7 74 200 Katelin VARGO 242 01:47:08 00:12:29 00:05:27 01:01:56 12.2 m/hr 00:01:29 00:25:46 9:32 min/m
8 83 217 Beth HOLLER 249 01:50:31 00:13:20 00:03:20 01:05:42 11.5 m/hr 00:01:11 00:26:56 9:58 min/m
9 91 226 Jessica DE LA FUENTE 265 01:52:22 00:14:46 00:02:05 01:03:00 12.0 m/hr 00:01:28 00:31:02 11:29 min/m
10 98 242 Michelle MARANON 843 01:57:08 00:10:40 00:03:46 01:06:43 11.3 m/hr 00:01:17 00:34:38 12:49 min/m
11 105 250 Anna SPENCER 861 02:00:35 00:19:16 00:04:00 01:05:42 11.5 m/hr 00:01:35 00:30:00 11:06 min/m
12 107 254 Daniela HINOJOSA 346 02:02:30 00:22:24 00:05:09 01:06:05 11.4 m/hr 00:03:48 00:25:02 9:16 min/m
13 111 261 Tania SEANEZ 96 02:07:31 00:12:53 00:04:44 01:19:46 9.5 m/hr 00:02:45 00:27:21 10:07 min/m
14 112 262 Lauren FREEMAN 879 02:07:42 00:10:24 00:02:50 01:15:27 10.0 m/hr 00:00:52 00:38:08 14:07 min/m
15 114 265 Samantha COMBS-WEISSLER 369 02:09:51 00:11:25 00:03:33 01:18:11 9.7 m/hr 00:01:57 00:34:42 12:51 min/m
16 115 267 Kat BAUER 341 02:13:38 00:15:23 00:03:25 01:12:32 10.4 m/hr 00:03:12 00:39:03 14:28 min/m
Male
1 3 3 Peter MURRAY 35 01:03:49 00:07:10 00:00:52 00:36:28 20.7 m/hr 00:00:54 00:18:24 6:48 min/m
2 9 11 Alan GASKA 12 01:10:29 00:07:58 00:01:08 00:41:09 18.4 m/hr 00:01:09 00:19:02 7:03 min/m
3 16 19 Julian RANGEL 878 01:14:08 00:09:19 00:00:33 00:42:03 18.0 m/hr 00:00:37 00:21:33 7:59 min/m
4 26 30 Christopher FLICK 208 01:18:38 00:10:40 00:02:09 00:43:44 17.3 m/hr 00:00:47 00:21:16 7:52 min/m
5 75 107 Emmanuel MALDONADO ROSARIO 63 01:31:14 00:09:13 00:04:22 00:54:21 13.9 m/hr 00:00:46 00:22:30 8:20 min/m
6 78 111 Corey CARMACK 285 01:31:43 00:11:35 00:03:21 00:51:59 14.5 m/hr 00:01:19 00:23:26 8:41 min/m
7 96 142 Danny THACH 98 01:35:38 00:24:18 00:02:13 00:48:34 15.6 m/hr 00:00:48 00:19:43 7:18 min/m
8 123 189 Michael JOHNSON 232 01:45:56 00:16:25 00:04:01 00:59:45 12.7 m/hr 00:01:14 00:24:29 9:04 min/m
9 130 207 William "FRANZ JR" 305 01:48:21 00:15:34 00:04:21 00:59:32 12.7 m/hr 00:03:33 00:25:17 9:22 min/m
10 132 211 Niall REED 364 01:49:05 00:13:31 00:02:02 01:03:38 11.9 m/hr 00:02:03 00:27:49 10:18 min/m
11 133 212 Jacob BURGER 385 01:49:14 00:12:50 00:05:46 01:00:31 12.5 m/hr 00:01:12 00:28:52 10:41 min/m
12 136 227 John FAIR 6 01:52:53 00:08:51 00:02:17 01:03:53 11.8 m/hr 00:01:46 00:36:03 13:21 min/m
13 148 256 Mitchell VIERA 382 02:06:16 00:14:45 00:06:31 01:11:14 10.6 m/hr 00:00:57 00:32:46 12:08 min/m
14 153 271 Thomas HOOVER 313 02:17:36 00:18:04 00:05:11 01:22:05 9.2 m/hr 00:01:13 00:31:00 11:29 min/m
15 154 274 Colby WRIGHT 360 02:33:50 00:18:31 00:08:12 01:21:08 9.3 m/hr 00:02:31 00:43:26 16:05 min/m
Ages 30 - 34
Female
1 3 13 Samantha COCHRANE 824 01:11:28 00:08:33 00:00:51 00:40:25 18.7 m/hr 00:00:45 00:20:52 7:43 min/m
2 16 63 Joy EGAN 829 01:24:42 00:09:23 00:01:46 00:49:21 15.3 m/hr 00:00:36 00:23:34 8:43 min/m
3 33 109 Kelly LANFORD 841 01:31:21 00:11:01 00:02:25 00:54:21 13.9 m/hr 00:00:43 00:22:49 8:27 min/m
4 35 113 Brandee HARGENS 221 01:31:51 00:12:49 00:02:01 00:49:48 15.2 m/hr 00:00:34 00:26:37 9:51 min/m
5 56 167 Laura LIECK 5 01:40:37 00:09:09 00:01:58 01:02:36 12.1 m/hr 00:00:54 00:25:59 9:37 min/m
6 60 177 Stephanie WILLIAMSON 206 01:42:57 00:12:39 00:02:37 01:00:05 12.6 m/hr 00:01:31 00:26:04 9:39 min/m
7 63 184 Katie MORNEAU 22 01:44:44 00:08:46 00:02:06 01:02:41 12.1 m/hr 00:02:16 00:28:52 10:41 min/m
8 64 185 Nikki SHEARMAN 381 01:44:44 00:15:08 00:02:56 01:00:35 12.5 m/hr 00:01:37 00:24:26 9:03 min/m
9 69 194 April MURPHY 325 01:46:17 00:10:11 00:02:57 01:01:39 12.3 m/hr 00:01:39 00:29:49 11:02 min/m
10 77 206 Sylvia RESENDIZ 310 01:48:10 00:18:53 00:03:17 00:54:28 13.9 m/hr 00:01:33 00:29:57 11:05 min/m
11 84 218 Melissa BUREK 248 01:50:48 00:15:59 00:03:12 00:59:54 12.6 m/hr 00:02:31 00:29:10 10:48 min/m
12 90 225 Erin HARRINGTON 363 01:52:16 00:11:41 00:03:26 01:05:18 11.6 m/hr 00:01:25 00:30:25 11:15 min/m
13 108 255 Alexis PRUST 23 02:06:10 00:10:37 00:03:27 01:14:51 10.1 m/hr 00:01:14 00:35:59 13:19 min/m
14 120 273 Jessica OCHOA 278 02:21:18 00:18:06 00:05:19 01:17:50 9.7 m/hr 00:02:09 00:37:53 14:01 min/m
Male
1 13 16 Stephen HANNAN 1 01:12:33 00:08:20 00:02:29 00:41:14 18.3 m/hr 00:01:04 00:19:24 7:11 min/m
2 36 42 Trey TURNER 228 01:21:23 00:10:52 00:02:22 00:44:20 17.0 m/hr 00:01:30 00:22:16 8:15 min/m
3 37 43 Jd SPENCER 862 01:21:24 00:09:09 00:01:56 00:46:40 16.2 m/hr 00:01:27 00:22:09 8:12 min/m
4 38 44 Joshua GUSLER 376 01:21:26 00:12:22 00:01:29 00:44:37 16.9 m/hr 00:00:52 00:22:04 8:10 min/m
5 67 98 Andrew PAVLUK 372 01:30:27 00:14:16 00:02:54 00:50:15 15.0 m/hr 00:01:17 00:21:43 8:02 min/m
6 79 114 Moises CEREZO 282 01:31:59 00:16:07 00:03:27 00:48:19 15.6 m/hr 00:01:35 00:22:30 8:20 min/m
7 93 136 Stefan SCHRIEWER 343 01:35:20 00:09:30 00:01:38 00:56:59 13.3 m/hr 00:01:09 00:26:02 9:38 min/m
8 95 141 Brandon SHAMBLIN 67 01:35:37 00:11:52 00:02:58 00:54:10 14.0 m/hr 00:01:39 00:24:56 9:14 min/m
9 99 145 David ABUHL 354 01:36:26 00:14:43 00:00:59 00:53:25 14.1 m/hr 00:00:45 00:26:33 9:50 min/m
10 108 160 Chris MOJICA 297 01:39:10 00:14:35 00:03:46 00:59:03 12.8 m/hr 00:00:57 00:20:47 7:42 min/m
11 119 181 Garett PICKETT 857 01:44:10 00:10:50 00:03:54 00:58:14 13.0 m/hr 00:02:38 00:28:32 10:34 min/m
12 120 182 Michael MERSHON 251 01:44:14 00:10:58 00:03:20 00:58:32 12.9 m/hr 00:00:50 00:30:31 11:18 min/m
13 126 198 David VIEIRA 241 01:46:59 00:12:31 00:05:18 01:01:54 12.2 m/hr 00:01:29 00:25:45 9:32 min/m
14 129 205 Steven PRUST 203 01:48:06 00:11:25 00:02:55 01:03:25 11.9 m/hr 00:01:37 00:28:43 10:38 min/m
15 131 210 Joseph DYER 41 01:48:56 00:10:19 00:01:40 01:03:16 11.9 m/hr 00:02:42 00:30:58 11:28 min/m
16 142 238 Edward RODRIGUEZ 379 01:56:03 00:18:23 00:03:13 00:58:26 12.9 m/hr 00:04:56 00:31:04 11:30 min/m
17 147 253 Sean BANNON 7 02:01:13 00:07:38 00:10:17 01:06:25 11.4 m/hr 00:01:00 00:35:51 13:17 min/m
Ages 35 - 39
Female
1 8 47 Kari KUBISTA 869 01:22:38 00:10:39 00:02:19 00:46:21 16.3 m/hr 00:01:27 00:21:50 8:05 min/m
2 11 55 Kimberly FOLDEN 24 01:23:50 00:12:29 00:01:48 00:45:43 16.5 m/hr 00:02:14 00:21:33 7:59 min/m
3 22 77 Charity BARAN 811 01:26:46 00:12:03 00:02:39 00:47:01 16.1 m/hr 00:02:14 00:22:47 8:26 min/m
4 23 79 Emily ZUCKER 45 01:27:03 00:08:41 00:01:10 00:52:04 14.5 m/hr 00:01:11 00:23:56 8:52 min/m
5 26 86 Michele ELMORE 830 01:28:51 00:09:48 00:02:05 00:47:41 15.9 m/hr 00:01:32 00:27:43 10:16 min/m
6 34 112 Amy BOWLES 53 01:31:46 00:11:36 00:01:53 00:50:23 15.0 m/hr 00:01:24 00:26:28 9:48 min/m
7 37 120 Jessica BORDON 84 01:32:23 00:11:51 00:02:11 00:52:43 14.3 m/hr 00:01:11 00:24:26 9:03 min/m
8 44 137 Courtney BRUEGMANN 299 01:35:26 00:11:34 00:02:43 00:57:26 13.2 m/hr 00:01:25 00:22:16 8:15 min/m
9 45 139 Katy MAULDIN 371 01:35:29 00:12:47 00:02:09 00:53:30 14.1 m/hr 00:02:01 00:25:02 9:16 min/m
10 49 149 Shannon DRICHTA 828 01:36:46 00:12:28 00:02:26 00:53:37 14.1 m/hr 00:01:04 00:27:08 10:03 min/m
11 54 163 Elise BOLDT 247 01:39:27 00:12:42 00:02:26 00:51:19 14.7 m/hr 00:02:19 00:30:39 11:21 min/m
12 68 192 Christine BUSCH 801 01:46:05 00:12:51 00:02:02 01:03:13 12.0 m/hr 00:01:06 00:26:50 9:56 min/m
Male
1 8 10 Michael DOHERTY 65 01:10:29 00:08:38 00:00:47 00:39:30 19.1 m/hr 00:01:01 00:20:31 7:36 min/m
2 15 18 Brian WOODWARD 16 01:14:00 00:10:18 00:00:36 00:42:53 17.6 m/hr 00:00:31 00:19:40 7:17 min/m
3 19 22 Reid FISHER 61 01:15:14 00:09:33 00:01:04 00:43:46 17.3 m/hr 00:00:36 00:20:13 7:29 min/m
4 20 23 Sati YUKSEK 17 01:17:03 00:09:30 00:01:04 00:43:26 17.4 m/hr 00:00:51 00:22:10 8:12 min/m
5 24 27 Teddy ORTIZ 92 01:18:08 00:09:07 00:02:13 00:45:17 16.7 m/hr 00:00:33 00:20:56 7:45 min/m
6 34 39 Martin DENNIS 9 01:20:42 00:08:45 00:02:41 00:48:31 15.6 m/hr 00:01:53 00:18:50 6:58 min/m
7 41 50 Eric CHANDLER 872 01:23:09 00:12:01 00:01:20 00:49:04 15.4 m/hr 00:01:00 00:19:42 7:17 min/m
8 51 69 David PARTRIDGE 246 01:25:28 00:09:55 00:02:21 00:49:55 15.1 m/hr 00:01:01 00:22:14 8:14 min/m
9 52 70 Matthew LEITKO 37 01:25:43 00:08:49 00:02:11 00:51:29 14.7 m/hr 00:01:03 00:22:09 8:12 min/m
10 61 87 Shawn DRIGGERS 881 01:28:58 00:10:53 00:02:48 00:46:07 16.4 m/hr 00:01:58 00:27:09 10:03 min/m
11 65 94 Adam SISSON 860 01:29:56 00:12:48 00:03:24 00:49:57 15.1 m/hr 00:00:45 00:22:59 8:31 min/m
12 66 95 Brett BARKER 42 01:30:00 00:11:11 00:02:17 00:48:19 15.6 m/hr 00:02:33 00:25:39 9:30 min/m
13 70 102 Fernando BERUMEN 72 01:30:43 00:11:21 00:00:40 00:49:00 15.4 m/hr 00:01:21 00:28:20 10:29 min/m
14 80 115 Ryan PORTER 99 01:32:06 00:10:12 00:03:48 00:52:38 14.4 m/hr 00:01:32 00:23:54 8:51 min/m
15 82 117 Edward SEVADJIAN 85 01:32:17 00:11:38 00:02:16 00:53:38 14.1 m/hr 00:01:01 00:23:42 8:46 min/m
16 94 138 Bernie HALL 835 01:35:26 00:10:44 00:02:38 00:54:41 13.8 m/hr 00:01:05 00:26:16 9:43 min/m
17 101 151 Kyle REED 342 01:37:08 00:11:38 00:03:06 00:56:30 13.4 m/hr 00:01:38 00:24:14 8:58 min/m
18 121 183 Marco SANCHEZ 350 01:44:32 00:13:54 00:02:51 01:00:57 12.4 m/hr 00:01:01 00:25:47 9:33 min/m
19 125 193 Josh LUCAS 327 01:46:15 00:13:46 00:04:12 00:58:21 13.0 m/hr 00:02:39 00:27:15 10:05 min/m
20 134 213 Shane JONES 389 01:49:33 00:13:03 00:02:50 00:58:52 12.8 m/hr 00:01:25 00:33:23 12:21 min/m
21 139 233 Gerardo CARDENAS 377 01:54:15 00:15:07 00:08:24 00:58:40 12.9 m/hr 00:03:38 00:28:25 10:31 min/m
22 145 249 Randy SANCHEZ 333 02:00:19 00:22:28 00:03:49 01:05:57 11.5 m/hr 00:01:05 00:26:58 9:59 min/m
Ages 40 - 44
Female
1 4 29 Shannon HUDSON 8 01:18:30 00:08:34 00:01:47 00:43:59 17.2 m/hr 00:01:23 00:22:44 8:25 min/m
2 18 66 Lisa WATTS 90 01:25:04 00:10:12 00:02:53 00:50:06 15.1 m/hr 00:02:12 00:19:40 7:17 min/m
3 30 96 Katherine BROWN 352 01:30:05 00:13:52 00:01:26 00:47:47 15.8 m/hr 00:01:51 00:25:07 9:18 min/m
4 53 161 Meghan BAILEY 390 01:39:11 00:11:31 00:03:06 00:55:26 13.6 m/hr 00:00:59 00:28:07 10:25 min/m
5 55 164 Rachel KERSTEN 347 01:39:54 00:12:39 00:03:29 00:52:31 14.4 m/hr 00:02:51 00:28:23 10:30 min/m
6 65 186 Lindsey TAUCHER 319 01:44:47 00:13:09 00:02:29 01:00:42 12.5 m/hr 00:01:53 00:26:33 9:50 min/m
7 66 188 Loraine SANCHEZ 205 01:45:26 00:12:23 00:02:17 00:59:04 12.8 m/hr 00:00:50 00:30:51 11:25 min/m
8 79 209 Karen LANASA 93 01:48:54 00:14:16 00:02:35 00:56:46 13.3 m/hr 00:02:55 00:32:20 11:58 min/m
9 85 219 Victoria SANCHEZ 380 01:50:51 00:18:22 00:04:39 00:56:11 13.5 m/hr 00:05:01 00:26:36 9:51 min/m
10 86 220 Jancey TERRY 864 01:51:00 00:16:18 00:02:37 00:53:36 14.1 m/hr 00:03:02 00:35:25 13:07 min/m
11 87 222 Jennifer UPTON 321 01:51:14 00:14:44 00:05:35 01:00:39 12.5 m/hr 00:06:18 00:23:56 8:51 min/m
12 89 224 Tiffany HOFBAUER 263 01:51:55 00:13:01 00:02:49 01:03:33 11.9 m/hr 00:00:41 00:31:50 11:47 min/m
13 95 235 Julie WARD 884 01:54:48 00:13:46 00:01:25 01:01:35 12.3 m/hr 00:01:08 00:36:53 13:39 min/m
14 106 252 Emily VALENTIN 70 02:00:46 00:15:01 00:02:50 01:05:03 11.6 m/hr 00:00:57 00:36:53 13:39 min/m
15 109 257 Molly LUCAS 250 02:06:35 00:13:31 00:02:40 01:14:13 10.2 m/hr 00:01:55 00:34:14 12:40 min/m
16 110 260 Robin ECKS 397 02:06:58 00:21:10 00:04:54 01:09:34 10.9 m/hr 00:01:51 00:29:28 10:54 min/m
17 113 263 Melissa VELENTZAS 290 02:08:09 00:12:53 00:03:48 01:10:26 10.7 m/hr 00:02:29 00:38:30 14:15 min/m
Male
1 7 9 Mark MYERS 19 01:10:17 00:09:41 00:01:13 00:39:36 19.1 m/hr 00:00:55 00:18:50 6:58 min/m
2 11 14 Jeff BOWLES 26 01:12:00 00:08:46 00:00:50 00:40:22 18.7 m/hr 00:00:38 00:21:23 7:55 min/m
3 12 15 Brian MOSSBURG 47 01:12:04 00:08:27 00:01:25 00:40:34 18.6 m/hr 00:00:41 00:20:55 7:45 min/m
4 22 25 Rubin AREVALOS 235 01:17:25 00:09:43 00:01:23 00:43:40 17.3 m/hr 00:00:35 00:22:03 8:10 min/m
5 23 26 Malte BRUEGMANN 15 01:17:29 00:08:24 00:01:31 00:44:44 16.9 m/hr 00:01:00 00:21:48 8:04 min/m
6 47 61 Vince JIMENEZ 91 01:24:28 00:13:14 00:01:29 00:46:17 16.3 m/hr 00:01:34 00:21:51 8:05 min/m
7 48 65 Carl AHRENDT 39 01:25:01 00:12:37 00:01:48 00:44:03 17.2 m/hr 00:02:05 00:24:26 9:03 min/m
8 69 101 Hismar FERNANDEZ 340 01:30:43 00:13:05 00:04:32 00:49:49 15.2 m/hr 00:00:54 00:22:22 8:17 min/m
9 74 106 Lothar HOFBAUER 14 01:31:10 00:11:26 00:02:01 00:51:39 14.6 m/hr 00:01:25 00:24:36 9:07 min/m
10 89 131 Ben SOTO 366 01:34:33 00:12:52 00:01:59 00:56:19 13.4 m/hr 00:00:51 00:22:31 8:20 min/m
11 90 133 James MULLETT 288 01:35:01 00:12:25 00:04:36 00:49:47 15.2 m/hr 00:02:30 00:25:41 9:30 min/m
12 103 153 Maulik SUTHAR 357 01:37:40 00:10:38 00:02:18 00:53:34 14.1 m/hr 00:01:49 00:29:18 10:51 min/m
13 111 166 Michael KERRIGAN 210 01:40:22 00:11:46 00:02:08 00:55:50 13.5 m/hr 00:01:57 00:28:39 10:36 min/m
14 113 170 Hardy VIENER 20 01:41:41 00:09:46 00:04:35 00:57:57 13.0 m/hr 00:04:15 00:25:06 9:17 min/m
15 144 241 Austin KARDOW 802 01:56:38 00:14:09 00:04:38 01:09:09 10.9 m/hr 00:01:03 00:27:38 10:14 min/m
16 150 259 John HICKS 213 02:06:48 00:13:01 00:03:56 01:16:45 9.8 m/hr 00:02:51 00:30:14 11:11 min/m
Ages 45 - 49
Female
1 6 41 Tami GIVEN 873 01:21:12 00:10:06 00:01:52 00:45:18 16.7 m/hr 00:01:14 00:22:40 8:24 min/m
2 7 46 Carla REID 75 01:22:32 00:10:20 00:01:25 00:45:48 16.5 m/hr 00:01:25 00:23:32 8:42 min/m
3 10 52 Lynn PAULO 345 01:23:36 00:10:46 00:02:25 00:45:14 16.7 m/hr 00:01:52 00:23:17 8:37 min/m
4 12 58 Janine MILLER 849 01:24:07 00:10:56 00:01:54 00:43:39 17.3 m/hr 00:02:09 00:25:27 9:25 min/m
5 13 59 Jodi ZAJAC 95 01:24:09 00:12:14 00:02:08 00:44:01 17.2 m/hr 00:02:43 00:23:00 8:31 min/m
6 17 64 Allison MOYER 398 01:25:00 00:10:15 00:02:11 00:46:25 16.3 m/hr 00:01:48 00:24:18 9:00 min/m
7 19 72 Victoria RODRIGUEZ 348 01:26:08 00:12:30 00:01:34 00:49:03 15.4 m/hr 00:00:48 00:22:10 8:12 min/m
8 20 74 Janelle REYES 211 01:26:20 00:11:53 00:01:48 00:48:30 15.6 m/hr 00:01:43 00:22:25 8:18 min/m
9 21 75 Jennifer SMITH 207 01:26:43 00:10:29 00:01:39 00:48:57 15.4 m/hr 00:01:30 00:24:05 8:55 min/m
10 28 90 Anne MOSQUEDA 384 01:29:25 00:12:21 00:01:22 00:48:50 15.5 m/hr 00:01:41 00:25:09 9:19 min/m
11 36 118 Deborah MAHAR GARCIA 240 01:32:20 00:12:24 00:02:20 00:53:02 14.3 m/hr 00:01:45 00:22:47 8:26 min/m
12 41 128 Nancy FINNEY 52 01:33:30 00:12:44 00:03:31 00:54:25 13.9 m/hr 00:01:29 00:21:19 7:53 min/m
13 46 140 Heidi RIGGS 44 01:35:31 00:12:05 00:01:51 00:53:32 14.1 m/hr 00:01:08 00:26:53 9:57 min/m
14 50 150 Christy ISETT 225 01:36:47 00:12:33 00:06:16 00:50:54 14.8 m/hr 00:02:10 00:24:52 9:12 min/m
15 59 174 Barbara PASTALANIEC 88 01:42:38 00:10:44 00:03:40 00:59:16 12.8 m/hr 00:01:19 00:27:37 10:13 min/m
16 62 180 Tami JOHNSON 329 01:43:52 00:21:47 00:02:34 00:55:05 13.7 m/hr 00:01:18 00:23:06 8:33 min/m
17 75 201 Dolores ORNELAS 298 01:47:25 00:14:57 00:02:27 00:53:57 14.0 m/hr 00:02:35 00:33:27 12:23 min/m
18 81 215 Christa MECK 351 01:49:39 00:11:34 00:02:35 01:00:02 12.6 m/hr 00:01:36 00:33:50 12:32 min/m
19 96 236 Krista MILAM 226 01:55:10 00:14:58 00:05:16 01:07:10 11.3 m/hr 00:01:23 00:26:21 9:45 min/m
20 97 240 Lora HUDGINS 268 01:56:31 00:21:27 00:03:29 00:59:40 12.7 m/hr 00:03:23 00:28:30 10:33 min/m
21 99 243 Estela JOACHIM 62 01:57:52 00:16:55 00:03:07 01:07:07 11.3 m/hr 00:01:15 00:29:26 10:54 min/m
22 100 244 Katherine PEARSON 338 01:58:31 00:19:59 00:05:19 01:04:54 11.6 m/hr 00:01:13 00:27:04 10:01 min/m
23 102 246 Sarah RIEGER 220 01:59:22 00:14:06 00:04:48 01:01:14 12.3 m/hr 00:03:11 00:36:01 13:20 min/m
Male
1 10 12 Geoff SANFORD 77 01:10:31 00:09:51 00:00:42 00:41:00 18.4 m/hr 00:00:48 00:18:08 6:43 min/m
2 14 17 Mark OVERLIE 852 01:13:27 00:09:07 00:01:36 00:41:49 18.1 m/hr 00:00:49 00:20:04 7:26 min/m
3 17 20 Gary JONES 32 01:14:48 00:09:12 00:01:09 00:42:36 17.7 m/hr 00:00:54 00:20:55 7:44 min/m
4 21 24 Paul GIFFEN 386 01:17:06 00:12:07 00:01:07 00:40:55 18.5 m/hr 00:00:51 00:22:04 8:10 min/m
5 25 28 Bill GUTIERREZ 38 01:18:13 00:11:29 00:01:42 00:41:50 18.1 m/hr 00:01:02 00:22:09 8:12 min/m
6 27 31 Robert MILLER 850 01:18:50 00:10:36 00:02:24 00:43:27 17.4 m/hr 00:02:09 00:20:12 7:28 min/m
7 31 35 Eric AGUIRRE 374 01:20:30 00:11:33 00:02:02 00:43:13 17.5 m/hr 00:01:35 00:22:05 8:10 min/m
8 40 49 Barry CALVERT 279 01:23:00 00:09:41 00:02:32 00:45:52 16.5 m/hr 00:01:24 00:23:29 8:42 min/m
9 53 71 Kris PATEL 269 01:25:52 00:12:00 00:01:56 00:46:51 16.1 m/hr 00:01:05 00:23:58 8:52 min/m
10 56 78 Ross WILLIS 64 01:26:54 00:12:28 00:01:47 00:46:23 16.3 m/hr 00:01:06 00:25:07 9:18 min/m
11 60 85 John VELENTZAS 289 01:28:18 00:14:23 00:03:00 00:45:39 16.6 m/hr 00:01:22 00:23:53 8:50 min/m
12 63 91 James WILDER 231 01:29:25 00:12:03 00:03:09 00:48:14 15.7 m/hr 00:02:50 00:23:06 8:33 min/m
13 71 103 Peter MCKENNA 877 01:30:58 00:11:20 00:04:01 00:52:06 14.5 m/hr 00:02:29 00:20:59 7:46 min/m
14 87 127 James BAUMANN 259 01:33:05 00:14:53 00:02:15 00:49:50 15.2 m/hr 00:01:28 00:24:37 9:07 min/m
15 88 130 Tom TREVINO 50 01:34:32 00:11:14 00:05:52 00:48:27 15.6 m/hr 00:02:24 00:26:34 9:50 min/m
16 92 135 Del HOLLIS 21 01:35:08 00:13:12 00:04:41 00:48:16 15.7 m/hr 00:02:46 00:26:10 9:41 min/m
17 104 155 Vance MITCHELL 851 01:38:13 00:10:46 00:02:01 00:57:30 13.1 m/hr 00:00:57 00:26:58 9:59 min/m
18 106 157 Sean ROBERTSON 330 01:38:29 00:13:43 00:03:37 00:54:00 14.0 m/hr 00:01:53 00:25:14 9:21 min/m
19 112 168 Chris CLAIBORNE 317 01:41:03 00:10:36 00:02:35 01:01:52 12.2 m/hr 00:00:51 00:25:06 9:17 min/m
20 140 234 Warren STAPLETON 201 01:54:32 00:13:22 00:04:20 00:55:51 13.5 m/hr 00:02:20 00:38:37 14:18 min/m
21 143 239 Art HALL 219 01:56:23 00:20:22 00:02:42 00:58:51 12.8 m/hr 00:01:45 00:32:41 12:06 min/m
22 146 251 Jeff SMITH 805 02:00:41 00:17:35 00:05:41 01:00:39 12.5 m/hr 00:03:08 00:33:35 12:26 min/m
Ages 50 - 54
Female
1 14 60 Debie CLINEBELL 49 01:24:12 00:10:38 00:01:38 00:45:47 16.5 m/hr 00:01:19 00:24:49 9:11 min/m
2 24 82 Marsha DOROUGH 79 01:27:49 00:13:46 00:03:23 00:48:23 15.6 m/hr 00:01:25 00:20:50 7:43 min/m
3 25 84 Vicki STROUZ 48 01:28:06 00:11:55 00:02:09 00:46:56 16.1 m/hr 00:01:24 00:25:41 9:30 min/m
4 31 97 Melanie WILLIAMSON 89 01:30:12 00:10:50 00:01:36 00:51:17 14.7 m/hr 00:01:05 00:25:22 9:23 min/m
5 32 100 Suzanne STOEPEL 71 01:30:38 00:10:57 00:02:21 00:45:57 16.5 m/hr 00:01:27 00:29:54 11:04 min/m
6 39 123 Nina STANFIELD 882 01:32:44 00:10:01 00:01:35 00:51:58 14.5 m/hr 00:01:10 00:27:58 10:21 min/m
7 42 129 Teresa OGG 883 01:34:06 00:11:05 00:01:55 00:51:52 14.6 m/hr 00:01:00 00:28:12 10:26 min/m
8 48 147 Karen RAY 224 01:36:39 00:12:31 00:04:09 00:47:19 16.0 m/hr 00:02:59 00:29:39 10:59 min/m
9 58 171 Rhonda BARTLING 337 01:42:09 00:19:00 00:02:00 00:53:21 14.2 m/hr 00:01:15 00:26:31 9:49 min/m
10 80 214 Diana L GATES 284 01:49:34 00:14:06 00:03:13 01:00:12 12.6 m/hr 00:01:18 00:30:42 11:22 min/m
11 82 216 Laura WINGFIELD 256 01:50:28 00:13:29 00:02:57 01:01:53 12.2 m/hr 00:00:50 00:31:17 11:35 min/m
12 92 229 Cindy LEMMON 368 01:53:11 00:13:35 00:02:40 00:55:42 13.6 m/hr 00:03:29 00:37:42 13:58 min/m
13 104 248 Cheryl LUDWICK 332 02:00:15 00:14:08 00:03:58 01:00:36 12.5 m/hr 00:02:41 00:38:50 14:23 min/m
14 116 268 Sarah BENNETT 814 02:14:26 00:13:35 00:06:40 01:13:00 10.4 m/hr 00:02:06 00:39:04 14:28 min/m
Male
1 29 33 Harry SHARKIS 27 01:19:56 00:10:10 00:01:21 00:43:57 17.2 m/hr 00:01:22 00:23:04 8:32 min/m
2 33 38 Dwight COLLINS 202 01:20:38 00:11:13 00:01:34 00:43:27 17.4 m/hr 00:01:21 00:23:01 8:31 min/m
3 35 40 Terry ROBIN 280 01:20:49 00:12:58 00:01:57 00:43:22 17.4 m/hr 00:00:50 00:21:40 8:01 min/m
4 39 45 Todd LACOSTE 40 01:21:46 00:10:20 00:01:41 00:45:24 16.7 m/hr 00:01:34 00:22:46 8:26 min/m
5 43 53 Avelino RODRIGUEZ 320 01:23:39 00:12:40 00:02:28 00:43:45 17.3 m/hr 00:01:50 00:22:54 8:29 min/m
6 55 76 Steve YOUNG 80 01:26:44 00:11:57 00:01:28 00:44:29 17.0 m/hr 00:01:33 00:27:15 10:05 min/m
7 57 80 Franklin FEWELL 54 01:27:16 00:11:53 00:02:04 00:49:48 15.2 m/hr 00:01:55 00:21:34 7:59 min/m
8 62 89 Kyle ASHLEY 74 01:29:22 00:12:30 00:01:39 00:46:36 16.2 m/hr 00:01:19 00:27:15 10:05 min/m
9 86 125 John CARMACK 286 01:32:46 00:11:46 00:03:01 00:48:12 15.7 m/hr 00:02:07 00:27:39 10:14 min/m
10 102 152 Paul TIDD 18 01:37:26 00:08:21 00:02:17 00:55:19 13.7 m/hr 00:01:36 00:29:51 11:03 min/m
11 107 159 David BARAJAS 361 01:39:04 00:11:56 00:02:39 00:53:19 14.2 m/hr 00:01:38 00:29:29 10:55 min/m
12 124 190 Mike SMITH 83 01:45:56 00:10:28 00:04:19 01:01:06 12.4 m/hr 00:02:30 00:27:32 10:11 min/m
13 138 230 Brian HUNTER 837 01:53:42 00:14:57 00:04:43 01:01:05 12.4 m/hr 00:01:09 00:31:45 11:45 min/m
14 151 264 Micahel SHORT 255 02:08:49 00:12:07 00:02:59 01:05:12 11.6 m/hr 00:02:54 00:45:35 16:53 min/m
Ages 55 - 59
Female
1 15 62 Leslie SCIBIENSKI 859 01:24:39 00:10:21 00:01:06 00:47:10 16.0 m/hr 00:01:06 00:24:54 9:13 min/m
2 27 88 Julie PECKHAM 854 01:29:04 00:08:27 00:01:43 00:50:47 14.9 m/hr 00:01:19 00:26:47 9:55 min/m
3 38 122 Rebecca BROWN 334 01:32:41 00:11:57 00:02:46 00:49:28 15.3 m/hr 00:00:51 00:27:37 10:14 min/m
4 40 126 Margaret RUSSELL 97 01:32:58 00:12:23 00:01:25 00:51:07 14.8 m/hr 00:01:49 00:26:14 9:43 min/m
5 67 191 Sheri MCCOY 844 01:45:59 00:14:40 00:02:57 00:57:48 13.1 m/hr 00:01:30 00:29:02 10:45 min/m
6 72 197 Yuvon ROBIN 223 01:46:57 00:13:26 00:02:22 00:58:15 13.0 m/hr 00:01:22 00:31:30 11:40 min/m
7 78 208 Glennis BRYCE 868 01:48:52 00:15:51 00:03:42 01:01:59 12.2 m/hr 00:01:08 00:26:11 9:41 min/m
8 88 223 Jennifer RAVENSCROFT 218 01:51:55 00:19:01 00:02:46 00:57:11 13.2 m/hr 00:01:20 00:31:35 11:42 min/m
9 103 247 Jacks CALLIE 813 01:59:49 00:11:55 00:03:01 01:04:15 11.8 m/hr 00:03:12 00:37:23 13:50 min/m
10 121 275 Angi CANADA 391 03:16:42 00:17:41 00:09:49 01:48:48 6.9 m/hr 00:11:24 00:48:59 18:08 min/m
Male
1 5 7 Joe HALLATSCHEK 836 01:09:17 00:08:02 00:00:45 00:37:12 20.3 m/hr 00:00:53 00:22:24 8:17 min/m
2 18 21 Anthony GUAJARDO JR. 395 01:15:05 00:11:47 00:01:43 00:42:04 18.0 m/hr 00:01:21 00:18:08 6:42 min/m
3 30 34 Steve RIORDAN 69 01:20:17 00:11:34 00:02:00 00:43:22 17.4 m/hr 00:01:02 00:22:17 8:15 min/m
4 59 83 Charles OMEIS 216 01:27:54 00:12:09 00:02:19 00:47:34 15.9 m/hr 00:02:22 00:23:27 8:41 min/m
5 64 93 G Charles RASNER 875 01:29:50 00:12:15 00:05:12 00:49:19 15.3 m/hr 00:03:02 00:20:01 7:25 min/m
6 98 144 Noel TREVINO 312 01:36:13 00:11:07 00:03:20 00:50:21 15.0 m/hr 00:01:30 00:29:52 11:03 min/m
7 105 156 Brendan MOORE 274 01:38:14 00:18:57 00:04:13 00:51:59 14.5 m/hr 00:01:37 00:21:26 7:56 min/m
8 127 203 James WARNER 355 01:47:54 00:15:49 00:02:54 00:57:51 13.1 m/hr 00:01:22 00:29:56 11:05 min/m
9 141 237 Robert LUDWICK 260 01:55:56 00:13:08 00:05:39 00:47:07 16.0 m/hr 00:02:49 00:47:11 17:28 min/m
10 149 258 Thomas WILLIAMS 76 02:06:47 00:10:54 00:05:57 01:06:00 11.5 m/hr 00:02:29 00:41:24 15:20 min/m
Ages 60 - 64
Female
1 70 195 Vicky GEISLER 237 01:46:26 00:14:47 00:02:04 00:57:59 13.0 m/hr 00:01:57 00:29:37 10:58 min/m
2 76 202 Debbie COTTRELL 252 01:47:29 00:12:45 00:03:24 01:01:01 12.4 m/hr 00:00:59 00:29:19 10:51 min/m
Male
1 28 32 Randy OHMAN 871 01:19:06 00:12:05 00:02:10 00:43:59 17.2 m/hr 00:01:57 00:18:54 7:00 min/m
2 42 51 Tim ROCKEY 51 01:23:23 00:10:31 00:03:29 00:44:11 17.1 m/hr 00:01:45 00:23:25 8:40 min/m
3 46 57 Jeff CORRIGAN 78 01:24:03 00:10:37 00:02:24 00:44:42 16.9 m/hr 00:01:03 00:25:16 9:21 min/m
4 73 105 Randy WAGNER 217 01:31:08 00:15:20 00:01:24 00:45:55 16.5 m/hr 00:01:51 00:26:37 9:51 min/m
5 84 121 Ed PURVIS 73 01:32:38 00:17:08 00:02:17 00:47:11 16.0 m/hr 00:01:49 00:24:11 8:57 min/m
6 109 162 Richard GOAD 264 01:39:11 00:14:07 00:02:41 00:49:06 15.4 m/hr 00:01:13 00:32:02 11:52 min/m
Ages 65 - 69
Female
1 119 272 Miriam RAVIV 57 02:18:45 00:13:42 00:02:07 01:05:57 11.5 m/hr 00:02:33 00:54:24 20:09 min/m
Male
1 44 54 David BOYETTE 28 01:23:41 00:10:04 00:01:17 00:44:03 17.2 m/hr 00:01:38 00:26:37 9:51 min/m
2 152 266 Daniel LANGAN 349 02:10:37 00:16:15 00:05:11 00:10:38 71.1 m/hr 01:08:24 00:30:08 11:09 min/m
Ages 75+
Male
1 135 221 Vic BLACK 266 01:51:07 00:18:13 00:03:37 00:54:50 13.8 m/hr 00:03:03 00:31:22 11:37 min/m
Fat Tire
Female
1 43 132 Anna FOYT 356 01:34:36 00:10:27 00:02:59 00:52:45 14.3 m/hr 00:02:31 00:25:52 9:34 min/m
2 47 146 Valentina SANSORES 858 01:36:35 00:11:43 00:02:31 00:58:05 13.0 m/hr 00:01:04 00:23:09 8:34 min/m
3 117 269 Kimberly CLINKSCALES 283 02:14:48 00:18:54 00:02:51 01:23:12 9.1 m/hr 00:01:09 00:28:40 10:37 min/m
Male
1 54 73 Jose FLORES 66 01:26:20 00:10:36 00:00:53 00:51:24 14.7 m/hr 00:00:57 00:22:28 8:19 min/m
2 76 108 Eric DAVIDSON 68 01:31:18 00:10:07 00:03:53 00:52:26 14.4 m/hr 00:01:28 00:23:23 8:39 min/m
3 91 134 Christian WILLIAMS 239 01:35:03 00:10:24 00:02:19 00:55:39 13.6 m/hr 00:00:47 00:25:52 9:34 min/m
4 114 172 Mark BANKS 393 01:42:17 00:14:59 00:02:16 00:57:38 13.1 m/hr 00:00:52 00:26:31 9:49 min/m
5 115 173 Matthew STRAUGHN 281 01:42:27 00:12:54 00:03:32 00:57:32 13.1 m/hr 00:02:09 00:26:19 9:45 min/m
6 117 176 David FAVER 270 01:42:52 00:12:32 00:03:36 00:54:31 13.9 m/hr 00:03:19 00:28:52 10:41 min/m
7 137 228 Aaron MILLER 394 01:53:04 00:20:40 00:05:07 00:54:47 13.8 m/hr 00:02:59 00:29:29 10:55 min/m
2-Person Relay
1 50 68 SCHWAB BOYS 373 01:25:21 00:08:14 00:00:34 00:54:51 13.8 m/hr 00:00:30 00:21:10 7:50 min/m
2 128 204 H SQUARED 46 01:48:03 00:12:11 00:01:48 00:49:54 15.1 m/hr 00:03:34 00:40:34 15:01 min/m
3-Person Relay
Male
1 32 36 PUGLIFE 56 01:20:32 00:10:54 00:00:42 00:42:44 17.7 m/hr 00:00:25 00:25:45 9:32 min/m
2 49 67 MID-LIFE CRISIS 262 01:25:17 00:12:45 00:00:37 00:45:53 16.5 m/hr 00:00:22 00:25:39 9:30 min/m
3 58 81 TEAM FER-WAT 388 01:27:18 00:09:03 00:00:53 00:53:31 14.1 m/hr 00:00:42 00:23:08 8:34 min/m
4 68 99 SUSIE IS LATE 314 01:30:33 00:11:37 00:01:03 00:53:31 14.1 m/hr 00:00:26 00:23:54 8:51 min/m
5 97 143 THE WRECKERS 807 01:35:39 00:11:23 00:00:52 00:55:59 13.5 m/hr 00:00:24 00:26:59 9:59 min/m
6 110 165 TRI OR DIE 383 01:40:20 00:11:19 00:00:58 00:54:43 13.8 m/hr 00:00:47 00:32:30 12:02 min/m
7 118 179 THE THREE STOOGES 245 01:43:48 00:21:34 00:02:47 00:54:10 14.0 m/hr 00:00:51 00:24:25 9:02 min/m
Race timing by RRPTiming.com!

 

[ Triathlon | Swim Bike | Swim Run | Bike Run ]

2016 Wurst Tri Ever
Swim Bike Results
Overall Swim
--300m--
T Bike
--12.6 Miles--
Gender
Pos
Overall
Pos
Name Race No Finish
Time
Swim
Split
T Bike
Split
Pace
Female
1 4 Anne COMEGYS 257 00:55:32 00:10:03 00:02:08 00:43:20 17.4 m/hr
2 6 Ann VITT 866 01:08:40 00:09:42 00:01:50 00:57:07 13.2 m/hr
3 7 Chris PIATT 856 01:09:10 00:12:18 00:02:22 00:54:30 13.9 m/hr
Male
1 1 Bill HORN 328 00:48:22 00:07:50 00:01:27 00:39:04 19.4 m/hr
2 2 Jeff KELL 25 00:48:43 00:07:45 00:00:59 00:39:58 18.9 m/hr
3 3 Orb GREENWALD 300 00:51:00 00:08:40 00:01:41 00:40:38 18.6 m/hr
4 5 Craig PATAKY 33 00:56:13 00:08:49 00:01:53 00:45:30 16.6 m/hr
5 8 Craig KUGLEN 204 01:14:04 00:14:43 00:02:03 00:57:17 13.2 m/hr
6 9 John BOHNSACK 804 01:20:23 00:15:24 00:02:17 01:02:40 12.1 m/hr
7 10 Isaac GOMEZ 294 01:25:48 00:16:45 00:05:07 01:03:55 11.8 m/hr
8 11 Michael GUYER 293 01:27:28 00:18:10 00:04:06 01:05:11 11.6 m/hr
Race timing by RRPTiming.com!

 

[ Triathlon | Swim Bike | Swim Run | Bike Run ]

2016 Wurst Tri Ever
Swim Run Results
Overall Swim
--300m--
T Run
--2.7 Miles--
Gender
Pos
Overall
Pos
Name Race No Finish
Time
Swim
Split
T Run
Split
Pace
Female
1 2 Tasha CERVANTES 821 00:34:34 00:10:58 00:00:48 00:22:47 8:26 min/m
2 3 Teresa ETHERTON 324 00:36:18 00:10:50 00:00:35 00:24:52 9:12 min/m
3 5 Tessa WOODWARD 100 00:41:06 00:13:05 00:00:59 00:27:01 10:00 min/m
4 6 Kasey GASKA 94 00:43:12 00:10:59 00:01:17 00:30:55 11:27 min/m
5 7 June BLACK 815 00:49:27 00:14:02 00:02:47 00:32:37 12:04 min/m
6 9 Jane IRELAND 30 00:58:14 00:14:12 00:02:54 00:41:08 15:14 min/m
Male
1 1 Pieter DEHART 4 00:22:25 00:06:09 00:00:14 00:16:01 5:56 min/m
2 4 Michael SEATON 243 00:36:55 00:11:01 00:01:44 00:24:09 8:56 min/m
3 8 Paul ELROD 229 00:52:37 00:11:13 00:06:07 00:35:16 13:03 min/m
4 10 Maxey BUCHWALD 86 01:05:39 00:09:31 00:32:07 00:24:00 8:53 min/m
Race timing by RRPTiming.com!

 

[ Triathlon | Swim Bike | Swim Run | Bike Run ]

2016 Wurst Tri Ever
Bike Run Results
Overall Bike
--12.6 Miles--
T Run
--2.7 Miles--
Gender
Pos
Overall
Pos
Name Race No Finish
Time
Bike
Split
Pace T Run
Split
Pace
Female
1 2 Kimber ROTHBARD 302 01:05:43 00:42:09 17.9 m/hr 00:01:13 00:22:20 8:16 min/m
2 5 Betty FOY 335 01:14:17 00:50:13 15.1 m/hr 00:00:38 00:23:25 8:40 min/m
3 6 Bel TUCKER 344 01:21:08 00:54:03 14.0 m/hr 00:03:22 00:23:42 8:46 min/m
4 8 Veronica ANDRADE 323 01:27:39 00:55:40 13.6 m/hr 00:02:10 00:29:48 11:02 min/m
5 11 Amber THOMPSON 387 01:37:28 01:04:16 11.8 m/hr 00:02:16 00:30:55 11:27 min/m
6 12 Jayna OWENS 392 01:37:28 01:04:15 11.8 m/hr 00:02:23 00:30:50 11:25 min/m
7 13 Janet WILLIAMS 277 01:42:54 01:06:01 11.4 m/hr 00:02:28 00:34:24 12:44 min/m
8 15 Rhonda CLAIBORNE 271 01:44:19 01:06:36 11.4 m/hr 00:08:43 00:28:59 10:44 min/m
9 16 Kirsten WISE 322 01:47:51 01:07:49 11.1 m/hr 00:03:10 00:36:50 13:38 min/m
Male
1 1 Brigham DUNN 339 01:05:09 00:44:18 17.1 m/hr 00:01:01 00:19:50 7:20 min/m
2 3 James CLINEBELL 309 01:09:34 00:43:26 17.4 m/hr 00:01:35 00:24:32 9:05 min/m
3 4 Anthony MOLOSZ 331 01:11:44 00:48:29 15.6 m/hr 00:01:42 00:21:32 7:58 min/m
4 7 Ezell SANCHEZ 359 01:23:28 01:01:29 12.3 m/hr 00:01:33 00:20:25 7:33 min/m
5 9 Dan GEISLER 308 01:31:06 01:01:04 12.4 m/hr 00:01:25 00:28:37 10:36 min/m
6 10 Albert VILLARREAL 806 01:32:43 01:04:38 11.7 m/hr 00:01:21 00:26:43 9:53 min/m
7 14 Adam CLAIBORNE 272 01:44:14 01:12:52 10.4 m/hr 00:02:23 00:28:58 10:43 min/m
Race timing by RRPTiming.com!
AttachmentSize
2016_WurstTriEver_Results.xlsx49.16 KB

© copyright 2013, RRPTiming.com. RRPTiming is a Redemption Race Productions site. Website by Rich.